Time;durP1;ratioP1;P1;durP2;ratioP2;P2;SDS_P1;SDS_P2;PMS_P1;PMS_P2;Temp;Humidity;BMP_temperature;BMP_pressure;BME280_temperature;BME280_humidity;BME280_pressure;Samples;Min_cycle;Max_cycle;Signal;HPM_P1;HPM_P2
2023/08/22 00:00:36;;;;;;;34.30;12.05;;;;;;;27.91;46.28;100671.47;5051368;28;20553;-80
2023/08/22 00:03:01;;;;;;;36.97;11.68;;;;;;;27.84;46.49;100673.47;5051616;28;20036;-79
2023/08/22 00:05:27;;;;;;;32.28;11.15;;;;;;;27.86;46.41;100668.53;5052100;28;20036;-79
2023/08/22 00:07:53;;;;;;;23.90;10.80;;;;;;;27.79;46.40;100665.06;5057489;28;20097;-80
2023/08/22 00:10:18;;;;;;;35.28;11.57;;;;;;;27.80;46.17;100675.03;5018507;28;20037;-81
2023/08/22 00:12:45;;;;;;;24.75;12.38;;;;;;;27.79;46.17;100676.13;5050522;28;20128;-81
2023/08/22 00:15:12;;;;;;;27.20;10.85;;;;;;;27.81;46.35;100675.88;5051654;28;20056;-77
2023/08/22 00:17:39;;;;;;;21.83;10.25;;;;;;;27.73;45.61;100666.00;5051716;28;20409;-79
2023/08/22 00:20:07;;;;;;;20.13;10.30;;;;;;;27.70;45.85;100657.34;5051642;28;20032;-79
2023/08/22 00:22:36;;;;;;;17.52;10.57;;;;;;;27.67;45.71;100666.94;5051819;28;20466;-81
2023/08/22 00:25:03;;;;;;;21.80;9.90;;;;;;;27.61;45.64;100656.00;5051890;28;20029;-81
2023/08/22 00:27:29;;;;;;;21.00;9.55;;;;;;;27.61;45.76;100653.22;5042455;28;20029;-79
2023/08/22 00:29:56;;;;;;;25.00;9.85;;;;;;;27.62;45.56;100661.25;5040612;28;20020;-79
2023/08/22 00:32:22;;;;;;;23.45;10.52;;;;;;;27.56;45.85;100664.97;5033736;28;20531;-79
2023/08/22 00:34:47;;;;;;;28.30;10.82;;;;;;;27.52;45.86;100658.25;5051767;28;20159;-80
2023/08/22 00:37:13;;;;;;;30.75;10.50;;;;;;;27.46;46.24;100661.94;5051331;28;20032;-79
2023/08/22 00:39:38;;;;;;;26.67;11.32;;;;;;;27.44;47.02;100655.78;5033423;28;20028;-80
2023/08/22 00:42:04;;;;;;;41.53;11.52;;;;;;;27.37;47.74;100658.63;5051720;28;20021;-80
2023/08/22 00:44:29;;;;;;;27.40;10.20;;;;;;;27.30;47.62;100646.00;5050955;28;20044;-80
2023/08/22 00:46:55;;;;;;;25.95;10.80;;;;;;;27.35;47.80;100657.16;5051591;28;20140;-80
2023/08/22 00:49:21;;;;;;;27.85;11.40;;;;;;;27.27;47.90;100643.69;5051011;28;20036;-81
2023/08/22 00:51:47;;;;;;;44.13;10.80;;;;;;;27.30;48.24;100648.75;5035107;28;20091;-78
2023/08/22 00:54:14;;;;;;;42.58;13.15;;;;;;;27.21;48.28;100645.47;5030792;28;20018;-78
2023/08/22 00:56:41;;;;;;;35.60;11.57;;;;;;;27.24;48.64;100655.22;5030975;28;20494;-79
2023/08/22 00:59:06;;;;;;;50.72;12.85;;;;;;;27.19;48.45;100657.81;5031049;28;20037;-79
2023/08/22 01:01:32;;;;;;;48.40;11.48;;;;;;;27.15;48.80;100657.44;5030491;28;20400;-79
2023/08/22 01:03:57;;;;;;;38.67;11.60;;;;;;;27.19;48.95;100663.31;5046953;28;20021;-81
2023/08/22 01:06:30;;;;;;;47.70;11.38;;;;;;;27.22;48.74;100663.72;5032893;28;20099;-80
2023/08/22 01:09:11;;;;;;;47.63;11.73;;;;;;;27.20;48.57;100653.97;5050415;28;20021;-81
2023/08/22 01:11:41;;;;;;;32.40;10.90;;;;;;;27.26;48.13;100650.28;5051117;28;20029;-80
2023/08/22 01:14:13;;;;;;;32.03;9.27;;;;;;;27.30;46.92;100646.00;5052096;28;20032;-81
2023/08/22 01:16:39;;;;;;;;;;;;;;;27.40;47.20;100654.56;5051289;28;20111;-79
2023/08/22 01:19:07;;;;;;;12.48;6.45;;;;;;;27.42;45.79;100646.88;5050477;28;19995;-82
2023/08/22 01:21:36;;;;;;;15.07;6.35;;;;;;;27.45;45.18;100635.38;5050261;28;20017;-81
2023/08/22 01:24:03;;;;;;;15.65;6.05;;;;;;;27.55;45.24;100647.53;5050541;28;20033;-80
2023/08/22 01:26:29;;;;;;;14.15;5.93;;;;;;;27.62;44.92;100652.97;5050995;28;20063;-80
2023/08/22 01:29:06;;;;;;;14.02;6.28;;;;;;;27.73;44.77;100649.41;5050813;28;20028;-80
2023/08/22 01:31:47;;;;;;;14.43;7.22;;;;;;;27.81;44.57;100657.38;5051513;28;20048;-79
2023/08/22 02:13:36;;;;;;;8.30;5.40;;;;;;;28.61;41.61;100647.47;5107769;27;20383;-77
2023/08/22 02:16:02;;;;;;;10.18;5.35;;;;;;;28.61;41.91;100664.09;5108110;28;20044;-81
2023/08/22 02:18:27;;;;;;;10.23;5.45;;;;;;;28.57;41.94;100648.19;5107633;28;20035;-79
2023/08/22 02:20:56;;;;;;;13.30;5.85;;;;;;;28.58;41.80;100659.03;5071785;28;20028;-78
2023/08/22 02:23:22;;;;;;;12.23;6.07;;;;;;;28.57;41.66;100662.03;5107554;28;20028;-75
2023/08/22 02:25:47;;;;;;;16.98;5.78;;;;;;;28.49;42.00;100643.88;5107413;28;20102;-75
2023/08/22 02:28:13;;;;;;;9.80;5.47;;;;;;;28.65;41.97;100658.09;5107167;28;20073;-76
2023/08/22 02:30:38;;;;;;;15.20;5.57;;;;;;;28.68;42.00;100655.69;5107310;28;20491;-76
2023/08/22 02:33:04;;;;;;;14.70;6.25;;;;;;;28.73;42.29;100652.19;5106058;28;20035;-75
2023/08/22 02:35:30;;;;;;;16.42;6.13;;;;;;;28.75;42.01;100653.59;5122295;28;20126;-75
2023/08/22 02:37:55;;;;;;;19.73;6.07;;;;;;;28.77;42.07;100650.63;5107525;28;20031;-76
2023/08/22 02:40:21;;;;;;;26.90;7.80;;;;;;;28.74;42.58;100651.94;5107190;28;20031;-76
2023/08/22 02:42:46;;;;;;;9.48;6.20;;;;;;;28.67;42.73;100639.31;5107637;28;20131;-75
2023/08/22 02:45:11;;;;;;;13.23;6.47;;;;;;;28.58;42.54;100622.22;5106974;28;20161;-74
2023/08/22 02:47:37;;;;;;;16.17;6.57;;;;;;;28.78;42.75;100661.44;5106968;28;20090;-75
2023/08/22 02:50:04;;;;;;;11.02;5.93;;;;;;;28.78;42.61;100655.03;5107197;28;20020;-76
2023/08/22 02:52:30;;;;;;;15.82;6.50;;;;;;;28.64;42.92;100640.59;5106991;28;20051;-76
2023/08/22 02:54:55;;;;;;;13.23;7.32;;;;;;;28.77;43.26;100657.00;5106936;28;20062;-75
2023/08/22 02:57:21;;;;;;;10.80;6.45;;;;;;;28.80;43.27;100662.06;5106733;28;20042;-75
2023/08/22 02:59:46;;;;;;;20.55;7.00;;;;;;;28.77;42.99;100675.53;5106739;28;20027;-76
2023/08/22 03:02:11;;;;;;;18.77;6.82;;;;;;;28.75;43.43;100673.00;5106981;28;20147;-76
2023/08/22 03:04:37;;;;;;;24.13;6.78;;;;;;;28.74;43.60;100663.03;5107065;28;20457;-75
2023/08/22 03:07:06;;;;;;;14.10;6.80;;;;;;;28.75;43.52;100675.75;5105524;28;20032;-75
2023/08/22 03:09:32;;;;;;;8.18;6.88;;;;;;;28.77;43.68;100683.84;5106698;28;20024;-74
2023/08/22 03:11:58;;;;;;;16.42;7.00;;;;;;;28.80;43.62;100683.34;5106498;28;20066;-76
2023/08/22 03:14:25;;;;;;;18.17;7.93;;;;;;;28.75;43.75;100680.44;5094130;28;20028;-76
2023/08/22 03:16:50;;;;;;;20.45;7.85;;;;;;;28.76;44.08;100696.00;5092711;28;20071;-73
2023/08/22 03:19:16;;;;;;;21.77;7.45;;;;;;;28.58;44.16;100658.19;5092988;28;20431;-74
2023/08/22 03:21:41;;;;;;;32.78;8.80;;;;;;;28.73;43.95;100689.00;5092919;28;20093;-75
2023/08/22 03:24:07;;;;;;;11.60;6.53;;;;;;;28.72;43.88;100675.41;5091474;28;20051;-74
2023/08/22 03:26:32;;;;;;;11.32;7.38;;;;;;;28.68;44.21;100680.59;5092734;28;20036;-75
2023/08/22 03:28:58;;;;;;;18.38;7.85;;;;;;;28.56;44.33;100660.38;5092846;28;20047;-75
2023/08/22 03:31:27;;;;;;;18.42;7.93;;;;;;;28.67;44.60;100680.84;5092430;28;20476;-77
2023/08/22 03:33:52;;;;;;;17.02;7.38;;;;;;;28.68;44.42;100685.28;5092657;28;20059;-76
2023/08/22 03:36:19;;;;;;;11.98;6.68;;;;;;;28.68;44.66;100691.69;5092818;28;20066;-76
2023/08/22 03:38:46;;;;;;;15.98;8.00;;;;;;;28.61;44.45;100682.63;5092596;28;20562;-75
2023/08/22 03:41:12;;;;;;;22.00;8.18;;;;;;;28.65;44.78;100686.63;5092589;28;20123;-76
2023/08/22 03:43:37;;;;;;;19.80;8.73;;;;;;;28.67;44.76;100683.59;5092543;28;20112;-76
2023/08/22 03:46:03;;;;;;;9.15;7.55;;;;;;;28.68;44.58;100686.13;5092607;28;20024;-75
2023/08/22 03:48:28;;;;;;;26.05;8.60;;;;;;;28.63;44.77;100689.59;5092554;28;20024;-76
2023/08/22 03:50:54;;;;;;;19.23;9.07;;;;;;;28.59;44.94;100682.03;5092386;28;20031;-76
2023/08/22 03:53:19;;;;;;;24.15;8.25;;;;;;;28.66;44.87;100690.22;5092301;28;20027;-75
2023/08/22 03:55:45;;;;;;;22.45;8.50;;;;;;;28.49;45.97;100670.69;5089921;28;20023;-77
2023/08/22 03:58:11;;;;;;;31.10;9.52;;;;;;;28.61;46.03;100690.91;5091164;28;20020;-76
2023/08/22 04:00:36;;;;;;;29.33;8.98;;;;;;;28.33;46.58;100665.88;5091703;28;20035;-76
2023/08/22 04:03:02;;;;;;;28.27;9.60;;;;;;;28.42;46.66;100692.09;5091970;28;20024;-76
2023/08/22 04:05:28;;;;;;;15.63;9.48;;;;;;;28.47;46.87;100692.25;5092002;28;20379;-77
2023/08/22 04:07:53;;;;;;;28.55;9.27;;;;;;;28.24;47.33;100672.84;5091427;28;20106;-78
2023/08/22 04:10:20;;;;;;;21.30;9.13;;;;;;;28.32;47.19;100692.69;5091924;28;20024;-76
2023/08/22 04:12:46;;;;;;;23.05;10.23;;;;;;;28.37;47.49;100701.16;5091523;28;20047;-76
2023/08/22 04:15:13;;;;;;;28.25;10.13;;;;;;;28.37;47.47;100705.84;5091447;28;20020;-75
2023/08/22 04:17:41;;;;;;;31.10;11.73;;;;;;;28.35;47.91;100705.22;5091442;28;20031;-75
2023/08/22 04:20:10;;;;;;;29.05;10.80;;;;;;;27.91;47.91;100627.22;5091528;28;20111;-75
2023/08/22 04:22:43;;;;;;;22.65;9.63;;;;;;;28.29;47.92;100701.47;5090345;28;20433;-76
2023/08/22 04:25:10;;;;;;;28.92;9.23;;;;;;;28.31;47.65;100704.88;5090467;28;20463;-85
2023/08/22 04:27:36;;;;;;;32.88;10.18;;;;;;;28.36;47.44;100706.91;5091574;28;20062;-81
2023/08/22 04:30:01;;;;;;;25.83;9.93;;;;;;;28.17;47.82;100669.34;5091491;28;20509;-83
2023/08/22 04:32:27;;;;;;;27.83;10.55;;;;;;;28.40;47.47;100710.88;5090480;28;20097;-79
2023/08/22 04:34:52;;;;;;;18.67;9.98;;;;;;;28.45;47.51;100713.78;5090491;28;20156;-78
2023/08/22 04:37:18;;;;;;;21.60;10.63;;;;;;;28.37;47.48;100689.22;5090343;28;20115;-78
2023/08/22 04:39:43;;;;;;;45.85;11.13;;;;;;;28.50;47.22;100705.59;5090068;28;20032;-81
2023/08/22 04:42:09;;;;;;;39.88;10.02;;;;;;;28.31;47.34;100668.91;5091165;28;20036;-76
2023/08/22 04:44:34;;;;;;;32.95;10.43;;;;;;;28.63;47.51;100713.66;5090867;28;20547;-75
2023/08/22 04:47:00;;;;;;;37.22;11.57;;;;;;;28.63;47.58;100708.13;5090402;28;20539;-74
2023/08/22 04:49:25;;;;;;;38.40;11.23;;;;;;;28.76;47.33;100726.44;5090499;28;20028;-76
2023/08/22 04:51:50;;;;;;;23.60;10.85;;;;;;;28.80;47.46;100722.13;5090319;28;20080;-77
2023/08/22 04:54:16;;;;;;;40.50;10.73;;;;;;;28.84;47.53;100723.28;5090408;28;20039;-74
2023/08/22 04:56:41;;;;;;;35.50;10.32;;;;;;;28.82;47.27;100720.78;5090307;28;20028;-76
2023/08/22 04:59:08;;;;;;;33.55;9.63;;;;;;;28.88;47.00;100725.34;5090280;28;20074;-76
2023/08/22 05:01:33;;;;;;;23.20;10.15;;;;;;;28.90;47.32;100728.72;5090263;28;20436;-76
2023/08/22 05:03:59;;;;;;;32.10;11.52;;;;;;;28.90;47.01;100731.47;5090867;28;20119;-73
2023/08/22 05:06:24;;;;;;;32.53;10.10;;;;;;;29.00;47.16;100734.50;5090306;28;20107;-75
2023/08/22 05:08:50;;;;;;;31.23;9.75;;;;;;;29.04;46.83;100724.63;5090545;28;20077;-74
2023/08/22 05:11:15;;;;;;;24.98;9.68;;;;;;;29.13;46.80;100737.00;5090063;28;20032;-75
2023/08/22 05:13:41;;;;;;;25.45;9.60;;;;;;;28.99;46.66;100715.38;5090556;28;20103;-73
2023/08/22 05:16:06;;;;;;;26.73;10.18;;;;;;;29.07;46.40;100701.97;5090126;28;20148;-76
2023/08/22 05:18:32;;;;;;;26.10;9.75;;;;;;;29.26;46.38;100726.78;5089379;28;20040;-74
2023/08/22 05:20:57;;;;;;;39.90;10.52;;;;;;;29.26;46.33;100727.63;5090075;28;20024;-75
2023/08/22 05:23:23;;;;;;;27.92;9.50;;;;;;;29.36;46.50;100724.19;5090238;28;20028;-75
2023/08/22 05:25:48;;;;;;;34.38;10.10;;;;;;;29.54;46.31;100746.22;5090285;28;20028;-74
2023/08/22 05:28:14;;;;;;;28.02;8.93;;;;;;;29.41;46.17;100713.22;5089778;28;20031;-74
2023/08/22 05:30:39;;;;;;;29.42;9.15;;;;;;;29.56;46.08;100738.50;5090231;28;20032;-75
2023/08/22 05:33:05;;;;;;;36.10;11.38;;;;;;;29.60;45.74;100731.38;5089481;28;20114;-77
2023/08/22 05:35:31;;;;;;;23.00;9.77;;;;;;;29.76;45.79;100749.97;5089887;28;20552;-74
2023/08/22 05:37:56;;;;;;;37.17;8.45;;;;;;;29.68;45.78;100719.88;5089757;28;20032;-74
2023/08/22 05:40:22;;;;;;;32.40;11.13;;;;;;;29.94;45.97;100746.16;5089602;28;20056;-77
2023/08/22 05:42:47;;;;;;;31.73;9.80;;;;;;;29.97;45.49;100735.44;5089471;28;20142;-74
2023/08/22 05:45:13;;;;;;;22.85;10.25;;;;;;;30.12;45.26;100749.56;5089787;28;20089;-74
2023/08/22 05:47:38;;;;;;;23.98;9.15;;;;;;;30.15;45.28;100749.06;5089985;28;20024;-76
2023/08/22 05:50:04;;;;;;;30.52;9.75;;;;;;;30.13;45.24;100739.31;5088291;28;20490;-74
2023/08/22 05:52:30;;;;;;;33.53;10.07;;;;;;;30.26;45.44;100750.09;5089558;28;20028;-74
2023/08/22 05:54:56;;;;;;;29.33;10.68;;;;;;;30.21;45.41;100730.59;5089391;28;20023;-75
2023/08/22 05:57:22;;;;;;;18.85;9.63;;;;;;;30.23;45.40;100729.25;5090102;28;20024;-75
2023/08/22 05:59:48;;;;;;;34.40;9.55;;;;;;;30.27;45.45;100731.53;5089826;28;20028;-76
2023/08/22 06:02:14;;;;;;;24.27;10.23;;;;;;;30.52;45.25;100748.66;5088020;28;20483;-74
2023/08/22 06:04:39;;;;;;;20.08;9.90;;;;;;;30.58;44.95;100748.44;5089649;28;20028;-75
2023/08/22 06:07:05;;;;;;;24.83;10.10;;;;;;;30.67;44.80;100757.22;5089850;28;20020;-73
2023/08/22 06:09:31;;;;;;;19.55;9.88;;;;;;;30.71;44.73;100748.13;5089658;28;20031;-76
2023/08/22 06:11:56;;;;;;;19.90;10.65;;;;;;;30.40;44.83;100701.50;5088788;28;20087;-73
2023/08/22 06:14:22;;;;;;;35.25;9.40;;;;;;;30.83;44.56;100742.44;5088890;28;20054;-74
2023/08/22 06:16:47;;;;;;;54.83;22.75;;;;;;;30.95;44.41;100756.25;5089449;28;20035;-78
2023/08/22 06:19:13;;;;;;;29.02;12.35;;;;;;;31.01;44.11;100753.31;5089287;28;20024;-74
2023/08/22 06:21:38;;;;;;;42.13;11.40;;;;;;;31.03;43.86;100756.69;5089265;28;20028;-74
2023/08/22 06:24:04;;;;;;;26.27;10.48;;;;;;;31.05;43.79;100743.38;5089055;28;20027;-76
2023/08/22 06:26:30;;;;;;;31.77;10.10;;;;;;;31.17;43.83;100746.88;5069992;28;20044;-75
2023/08/22 06:28:56;;;;;;;23.27;10.30;;;;;;;31.19;43.61;100743.84;5091439;28;20440;-75
2023/08/22 06:31:21;;;;;;;20.65;10.10;;;;;;;31.34;43.27;100751.53;5098067;28;20679;-75
2023/08/22 06:33:46;;;;;;;24.55;11.10;;;;;;;31.40;43.28;100756.06;5103005;28;20028;-76
2023/08/22 06:36:12;;;;;;;18.27;9.48;;;;;;;31.48;42.94;100745.31;5101282;28;20096;-76
2023/08/22 06:38:37;;;;;;;28.20;9.27;;;;;;;31.39;42.74;100719.09;5092818;28;20400;-76
2023/08/22 06:41:07;;;;;;;22.63;10.07;;;;;;;31.67;42.21;100757.00;5090301;28;20032;-75
2023/08/22 06:43:33;;;;;;;20.80;9.93;;;;;;;31.52;42.52;100723.44;5089551;28;20574;-76
2023/08/22 06:45:58;;;;;;;25.77;9.98;;;;;;;31.81;42.52;100758.25;5089950;28;20107;-75
2023/08/22 06:48:25;;;;;;;22.45;9.80;;;;;;;31.85;42.21;100739.94;5090852;28;20419;-76
2023/08/22 06:50:50;;;;;;;38.05;10.93;;;;;;;32.06;41.79;100760.50;5093081;28;20028;-76
2023/08/22 06:53:16;;;;;;;29.33;10.65;;;;;;;32.14;41.91;100752.50;5093227;28;20494;-75
2023/08/22 06:55:48;;;;;;;41.63;12.02;;;;;;;32.25;41.61;100748.75;5092208;28;20036;-77
2023/08/22 06:58:14;;;;;;;40.28;10.10;;;;;;;32.44;41.35;100765.91;5093034;28;20100;-75
2023/08/22 07:00:40;;;;;;;25.50;10.60;;;;;;;32.51;41.14;100762.84;5091893;28;20114;-75
2023/08/22 07:03:06;;;;;;;30.15;9.88;;;;;;;32.53;41.30;100746.75;5090628;28;20035;-77
2023/08/22 07:05:34;;;;;;;26.33;9.95;;;;;;;32.65;40.97;100759.41;5073052;28;20051;-74
2023/08/22 07:08:00;;;;;;;28.52;11.30;;;;;;;32.38;40.86;100685.38;5090524;28;20102;-74
2023/08/22 07:10:26;;;;;;;35.53;12.00;;;;;;;32.82;40.94;100743.38;5092316;28;20515;-75
2023/08/22 07:12:51;;;;;;;23.70;9.98;;;;;;;32.97;40.53;100756.56;5091468;28;20055;-74
2023/08/22 07:15:17;;;;;;;23.80;10.45;;;;;;;32.93;40.33;100729.50;5091815;28;20082;-75
2023/08/22 07:17:42;;;;;;;34.42;10.75;;;;;;;33.21;40.10;100752.25;5091462;28;20411;-75
2023/08/22 07:20:08;;;;;;;34.03;12.38;;;;;;;33.32;39.80;100754.00;5092008;28;20016;-76
2023/08/22 07:22:33;;;;;;;20.83;8.48;;;;;;;33.42;38.10;100742.88;5091667;28;20024;-76
2023/08/22 07:24:59;;;;;;;21.77;9.85;;;;;;;33.49;38.56;100742.63;5091305;28;20028;-77
2023/08/22 07:27:24;;;;;;;16.77;8.55;;;;;;;33.62;37.17;100735.72;5091304;28;20024;-76
2023/08/22 07:29:50;;;;;;;35.10;11.55;;;;;;;33.70;37.05;100743.59;5091803;28;20407;-80
2023/08/22 07:32:18;;;;;;;14.93;8.63;;;;;;;33.81;37.01;100737.75;5094435;28;20516;-76
2023/08/22 07:34:45;;;;;;;27.17;11.05;;;;;;;33.91;38.24;100740.53;5090497;28;20110;-76
2023/08/22 07:37:10;;;;;;;35.60;11.07;;;;;;;34.01;38.13;100739.72;5090730;28;20035;-78
2023/08/22 07:39:36;;;;;;;26.73;11.32;;;;;;;34.07;38.14;100744.22;5090777;28;20756;-77
2023/08/22 07:42:02;;;;;;;24.98;10.57;;;;;;;34.19;37.66;100757.97;5091268;28;20043;-76
2023/08/22 07:44:28;;;;;;;24.63;9.32;;;;;;;34.20;37.69;100749.28;5089858;28;20142;-74
2023/08/22 07:46:55;;;;;;;20.23;9.75;;;;;;;34.14;37.53;100755.97;5091328;28;20048;-76
2023/08/22 07:49:20;;;;;;;31.55;9.35;;;;;;;34.08;37.55;100720.75;5091324;28;20036;-74
2023/08/22 07:51:46;;;;;;;26.00;11.05;;;;;;;34.28;37.26;100740.34;5089640;28;20419;-75
2023/08/22 07:54:11;;;;;;;16.73;8.82;;;;;;;34.10;37.07;100721.34;5091713;28;20024;-76
2023/08/22 07:56:37;;;;;;;10.70;8.25;;;;;;;34.13;37.01;100726.38;5089716;28;20035;-76
2023/08/22 07:59:02;;;;;;;21.55;9.25;;;;;;;34.20;37.02;100754.88;5091642;28;20028;-75
2023/08/22 08:01:28;;;;;;;16.63;9.75;;;;;;;34.29;36.93;100747.63;5091579;28;20471;-74
2023/08/22 08:03:53;;;;;;;23.35;8.77;;;;;;;34.14;36.73;100716.91;5091758;28;20027;-75
2023/08/22 08:06:19;;;;;;;20.10;8.77;;;;;;;34.15;36.89;100726.97;5090378;28;20047;-75
2023/08/22 08:08:44;;;;;;;19.65;8.60;;;;;;;34.27;36.84;100749.88;5091658;28;20032;-75
2023/08/22 08:11:10;;;;;;;21.95;9.38;;;;;;;34.34;36.91;100739.22;5091517;28;20036;-74
2023/08/22 08:13:35;;;;;;;22.67;8.90;;;;;;;34.33;36.99;100734.78;5091418;28;20123;-75
2023/08/22 08:16:01;;;;;;;28.15;9.32;;;;;;;34.40;37.31;100743.69;5091551;28;20024;-74
2023/08/22 08:18:26;;;;;;;21.15;8.73;;;;;;;34.36;37.20;100742.59;5091125;28;20024;-75
2023/08/22 08:20:52;;;;;;;25.25;8.63;;;;;;;34.46;37.42;100728.63;5090949;28;20047;-76
2023/08/22 08:23:17;;;;;;;22.50;9.07;;;;;;;34.70;37.17;100736.47;5090955;28;20036;-74
2023/08/22 08:25:43;;;;;;;24.10;9.15;;;;;;;34.70;37.28;100737.31;5091089;28;20028;-74
2023/08/22 08:28:09;;;;;;;16.98;8.15;;;;;;;34.83;37.10;100724.72;5091107;28;20020;-74
2023/08/22 08:30:34;;;;;;;21.63;8.10;;;;;;;34.84;36.60;100704.84;5091183;28;20023;-73
2023/08/22 08:33:03;;;;;;;18.50;8.85;;;;;;;35.10;36.58;100736.41;5068043;28;20074;-75
2023/08/22 08:35:29;;;;;;;23.65;8.98;;;;;;;35.08;36.79;100744.19;5067889;28;20080;-74
2023/08/22 08:37:54;;;;;;;25.80;8.63;;;;;;;34.87;37.60;100736.97;5084135;28;20117;-76
2023/08/22 08:40:20;;;;;;;22.98;9.32;;;;;;;35.01;37.81;100738.09;5087142;28;20032;-75
2023/08/22 08:42:45;;;;;;;18.30;7.82;;;;;;;35.09;37.45;100740.31;5067733;28;20037;-75
2023/08/22 08:45:13;;;;;;;26.88;8.60;;;;;;;34.90;37.21;100731.66;5067224;28;20484;-73
2023/08/22 08:47:39;;;;;;;34.17;9.43;;;;;;;34.73;38.33;100744.28;5067242;28;20451;-75
2023/08/22 08:50:09;;;;;;;16.25;8.73;;;;;;;34.56;38.27;100724.97;5067093;28;20044;-77
2023/08/22 08:52:36;;;;;;;17.85;9.73;;;;;;;34.50;38.46;100753.19;5050224;28;20060;-77
2023/08/22 08:55:04;;;;;;;22.45;14.23;;;;;;;34.15;39.17;100754.88;5066722;28;20033;-76
2023/08/22 08:57:32;;;;;;;15.20;8.27;;;;;;;34.13;39.49;100736.72;5064911;28;20044;-75
2023/08/22 09:00:00;;;;;;;18.92;9.13;;;;;;;34.34;39.69;100764.38;5066980;28;20504;-76
2023/08/22 09:02:27;;;;;;;41.75;11.43;;;;;;;33.98;40.84;100753.41;5066950;28;20439;-73
2023/08/22 09:04:52;;;;;;;26.60;9.23;;;;;;;34.05;41.36;100768.78;5086537;28;20779;-74
2023/08/22 09:07:18;;;;;;;19.20;9.48;;;;;;;33.80;41.61;100757.56;5089583;28;20027;-75
2023/08/22 09:09:43;;;;;;;23.77;10.52;;;;;;;33.48;42.29;100756.84;5089118;28;20036;-74
2023/08/22 09:12:10;;;;;;;15.75;9.77;;;;;;;33.27;43.05;100734.44;5088622;28;20065;-76
2023/08/22 09:14:44;;;;;;;17.83;8.82;;;;;;;33.12;43.45;100764.22;5089674;28;20035;-75
2023/08/22 09:17:16;;;;;;;23.23;10.75;;;;;;;33.06;43.83;100760.50;5088659;28;20032;-76
2023/08/22 09:19:41;;;;;;;;;;;;;;;33.06;44.88;100754.94;5089382;28;20038;-73
2023/08/22 09:22:07;;;;;;;23.30;10.57;;;;;;;33.13;44.86;100746.38;5089035;28;19912;-75
2023/08/22 09:24:34;;;;;;;20.77;9.68;;;;;;;33.33;44.52;100749.28;5089035;28;20051;-75
2023/08/22 09:27:05;;;;;;;26.40;9.68;;;;;;;33.39;44.22;100754.56;5089139;28;20447;-74
2023/08/22 09:29:33;;;;;;;20.23;9.48;;;;;;;33.27;44.54;100744.78;5088742;28;20047;-74
2023/08/22 09:32:01;;;;;;;22.05;9.88;;;;;;;33.39;44.73;100726.69;5089130;28;20100;-78
2023/08/22 09:34:27;;;;;;;27.67;10.48;;;;;;;33.63;45.22;100751.38;5089312;28;20038;-79
2023/08/22 09:36:56;;;;;;;21.08;10.65;;;;;;;33.47;45.46;100744.00;5089212;28;20391;-75
2023/08/22 09:39:23;;;;;;;21.60;10.88;;;;;;;33.49;45.52;100719.47;5089025;28;20502;-76
2023/08/22 09:41:57;;;;;;;25.75;10.27;;;;;;;33.32;45.79;100700.19;5088689;28;20032;-74
2023/08/22 09:44:26;;;;;;;29.60;10.65;;;;;;;33.67;45.58;100753.31;5052679;28;20043;-74
2023/08/22 09:46:53;;;;;;;13.30;9.93;;;;;;;33.73;45.99;100740.25;5089297;28;20024;-75
2023/08/22 09:49:19;;;;;;;20.35;10.57;;;;;;;33.79;45.37;100750.31;5088428;28;20036;-74
2023/08/22 09:51:47;;;;;;;32.65;12.13;;;;;;;33.55;46.39;100740.69;5088895;28;20025;-74
2023/08/22 09:54:13;;;;;;;25.38;11.05;;;;;;;33.67;46.52;100736.59;5088809;28;20036;-75
2023/08/22 09:56:39;;;;;;;20.92;9.85;;;;;;;33.83;46.52;100745.84;5088279;28;20112;-74
2023/08/22 09:59:05;;;;;;;24.15;9.90;;;;;;;33.90;46.88;100755.63;5088616;28;20647;-74
2023/08/22 10:01:38;;;;;;;20.08;10.50;;;;;;;33.81;47.32;100737.75;5088690;28;20084;-74
2023/08/22 10:04:07;;;;;;;20.10;9.70;;;;;;;33.85;47.40;100752.00;5088668;28;20380;-76
2023/08/22 10:06:34;;;;;;;22.20;11.25;;;;;;;33.75;47.40;100757.53;5053125;28;20039;-74
2023/08/22 10:09:07;;;;;;;27.88;14.10;;;;;;;33.53;48.13;100756.88;5089270;28;20071;-74
2023/08/22 10:11:38;;;;;;;15.52;10.05;;;;;;;33.44;48.71;100756.56;5069153;28;20063;-74
2023/08/22 10:14:05;;;;;;;49.95;13.63;;;;;;;33.21;49.52;100757.03;5088915;28;20031;-76
2023/08/22 10:16:31;;;;;;;28.45;11.25;;;;;;;33.15;49.78;100758.91;5088454;28;20054;-74
2023/08/22 10:19:03;;;;;;;20.17;10.93;;;;;;;33.07;50.22;100759.41;5087542;28;20024;-75
2023/08/22 10:21:40;;;;;;;20.25;10.45;;;;;;;33.04;50.79;100754.38;5088515;28;20115;-75
2023/08/22 10:24:06;;;;;;;21.10;10.70;;;;;;;32.97;50.74;100753.75;5091158;28;20028;-74
2023/08/22 10:26:50;;;;;;;13.02;9.82;;;;;;;33.01;50.46;100757.69;5092796;28;20021;-75
2023/08/22 10:29:17;;;;;;;35.22;12.55;;;;;;;32.95;50.58;100753.19;5092902;28;20020;-75
2023/08/22 10:32:06;;;;;;;19.77;11.85;;;;;;;33.04;50.80;100756.31;5092424;28;20035;-74
2023/08/22 10:34:34;;;;;;;27.52;12.73;;;;;;;33.13;50.69;100757.50;5009900;28;20044;-74
2023/08/22 10:37:01;;;;;;;20.45;11.15;;;;;;;33.13;50.98;100760.31;5010078;28;20050;-75
2023/08/22 10:39:43;;;;;;;20.67;12.10;;;;;;;33.24;50.06;100764.84;5009806;28;20192;-74
2023/08/22 10:42:23;;;;;;;26.98;11.32;;;;;;;33.22;49.50;100731.63;5009893;28;20038;-75
2023/08/22 10:44:50;;;;;;;24.63;10.45;;;;;;;33.35;49.45;100750.66;5009540;28;20603;-76
2023/08/22 10:47:19;;;;;;;29.40;12.82;;;;;;;33.35;48.96;100697.69;5009500;28;20026;-75
2023/08/22 10:49:49;;;;;;;69.53;14.18;;;;;;;33.60;49.34;100754.72;4976899;28;20026;-74
2023/08/22 10:52:16;;;;;;;20.67;11.00;;;;;;;33.68;49.45;100740.22;5009765;28;20041;-75
2023/08/22 10:55:08;;;;;;;20.15;11.43;;;;;;;33.79;48.35;100739.16;5009786;28;20034;-74
2023/08/22 10:57:37;;;;;;;23.20;10.88;;;;;;;33.78;48.17;100715.13;5009797;28;20041;-75
2023/08/22 11:00:20;;;;;;;32.20;10.82;;;;;;;34.08;48.22;100739.47;5009546;28;20509;-74
2023/08/22 11:02:56;;;;;;;16.40;10.43;;;;;;;34.01;48.26;100745.31;5009612;28;20038;-74
2023/08/22 11:05:22;;;;;;;28.80;10.63;;;;;;;34.04;47.80;100750.34;5009439;28;20038;-75
2023/08/22 11:07:48;;;;;;;22.80;10.48;;;;;;;33.94;47.64;100739.19;5009875;28;20176;-74
2023/08/22 11:10:16;;;;;;;21.45;10.00;;;;;;;33.85;48.26;100741.66;5009484;28;20041;-75
2023/08/22 11:12:45;;;;;;;38.45;12.30;;;;;;;33.88;nan;100723.53;5090021;28;20193;-75
2023/08/22 11:15:11;;;;;;;24.33;10.30;;;;;;;34.02;47.80;100730.25;5091883;28;20099;-75
2023/08/22 11:17:40;;;;;;;26.17;10.82;;;;;;;33.94;48.05;100708.47;5092065;28;20020;-75
2023/08/22 11:20:13;;;;;;;19.40;9.85;;;;;;;34.20;47.02;100732.53;5098549;28;20020;-77
2023/08/22 11:22:40;;;;;;;25.35;11.65;;;;;;;34.18;44.51;100711.59;5098009;28;20054;-74
2023/08/22 11:25:06;;;;;;;24.83;9.93;;;;;;;34.29;44.48;100725.28;5094553;28;20024;-75
2023/08/22 11:27:32;;;;;;;34.00;10.82;;;;;;;34.36;45.46;100731.44;5092706;28;20042;-75
2023/08/22 11:29:58;;;;;;;18.92;9.98;;;;;;;34.33;47.22;100720.81;5093828;28;20028;-75
2023/08/22 11:32:25;;;;;;;30.90;10.52;;;;;;;34.20;47.62;100709.34;5093097;28;20440;-75
2023/08/22 11:34:53;;;;;;;18.15;9.63;;;;;;;34.19;48.61;100730.84;5091783;28;20074;-73
2023/08/22 11:37:19;;;;;;;17.17;10.68;;;;;;;33.95;48.97;100721.28;5056112;28;20093;-77
2023/08/22 11:39:51;;;;;;;24.65;10.80;;;;;;;33.70;49.86;100732.44;5091702;28;20059;-75
2023/08/22 11:42:18;;;;;;;27.13;11.70;;;;;;;33.68;50.36;100712.31;5091350;28;20046;-76
2023/08/22 11:45:04;;;;;;;28.00;10.52;;;;;;;34.00;49.52;100721.31;5091336;28;20026;-74
2023/08/22 11:47:52;;;;;;;25.58;9.27;;;;;;;34.16;45.12;100736.19;5091483;28;20119;-75
2023/08/22 11:50:28;;;;;;;14.02;9.18;;;;;;;34.30;44.71;100738.13;5091299;28;20431;-74
2023/08/22 11:52:55;;;;;;;18.30;10.38;;;;;;;34.41;45.06;100738.97;5091132;28;20024;-74